Latest Weather Observations for Neptune Island

IDS60801

Issued at 7:35 am CST Sunday 21 September 2014 (issued every 30 minutes, with the page automatically refreshed every 10 minutes)

About weather observations | Map of weather stations | Latest weather observations for SA | Other Formats
Station Details ID: 018115 Name: NEPTUNE ISLAND Lat: -35.34 Lon: 136.12 Height: 32.0 m
Data from the previous 72 hours. | See also: Recent months at Neptune Island
Date/Time
CST
Temp
°C
App
Temp
°C
Dew
Point
Rel
Hum
%
Delta-T
°C
Wind Press
QNH
hPa
Press
MSL
hPa
Rain
since 9 am
mm
Dir
 
Spd
km/h
Gust
km/h
Spd
kts
Gust
kts
21/07:30am 14.6 7.5 9.4 71 2.7 ENE 37 43 20 23 1027.9 1027.9 0.0
21/07:00am 14.4 7.2 9.2 71 2.6 ENE 37 43 20 23 1027.6 1027.6 0.0
21/06:30am 14.3 7.6 9.5 73 2.5 ENE 35 41 19 22 1027.4 1027.4 0.0
21/06:00am 14.5 7.8 9.7 73 2.5 ENE 35 39 19 21 1027.3 1027.3 0.0
21/05:30am 14.4 7.8 10.0 75 2.3 ENE 35 39 19 21 1027.0 1027.0 0.0
21/05:00am 14.5 8.4 10.3 76 2.2 ENE 33 39 18 21 1026.8 1026.8 0.0
21/04:30am 14.3 8.2 10.3 77 2.1 ENE 33 37 18 20 1026.7 1026.7 0.0
21/04:00am 14.3 7.8 10.5 78 2.0 ENE 35 41 19 22 1026.5 1026.5 0.0
21/03:30am 14.3 7.8 10.5 78 2.0 ENE 35 43 19 23 1026.2 1026.2 0.0
21/03:00am 14.4 8.0 10.8 79 1.9 ENE 35 41 19 22 1026.3 1026.3 0.0
21/02:30am 14.5 7.7 10.7 78 2.0 ENE 37 44 20 24 1026.3 1026.3 0.0
21/02:00am 14.6 7.8 10.8 78 2.0 ENE 37 43 20 23 1026.2 1026.2 0.0
21/01:30am 14.6 7.8 10.6 77 2.1 ENE 37 41 20 22 1026.5 1026.5 0.0
21/01:00am 14.6 7.4 10.4 76 2.2 ENE 39 44 21 24 1026.6 1026.6 0.0
21/12:30am 14.5 7.2 10.3 76 2.2 ENE 39 46 21 25 1026.5 1026.5 0.0
21/12:00am 14.5 7.2 10.1 75 2.3 ENE 39 46 21 25 1026.7 1026.7 0.0
 
Date/Time
CST
Temp
°C
App
Temp
°C
Dew
Point
Rel
Hum
%
Delta-T
°C
Wind Press
QNH
hPa
Press
MSL
hPa
Rain
since 9 am
mm
Dir
 
Spd
km/h
Gust
km/h
Spd
kts
Gust
kts
20/11:30pm 14.7 7.0 10.3 75 2.3 ENE 41 48 22 26 1026.6 1026.6 0.0
20/11:00pm 14.7 7.8 10.3 75 2.3 ENE 37 46 20 25 1026.6 1026.6 0.0
20/10:30pm 14.8 7.1 10.0 73 2.5 ENE 41 50 22 27 1026.6 1026.6 0.0
20/10:00pm 14.9 7.9 10.1 73 2.5 E 37 43 20 23 1026.7 1026.7 0.0
20/09:30pm 15.2 8.2 9.8 70 2.8 E 37 46 20 25 1026.7 1026.7 0.0
20/09:00pm 15.4 8.2 9.1 66 3.2 E 37 46 20 25 1026.4 1026.4 0.0
20/08:30pm 15.5 8.3 9.2 66 3.2 E 37 46 20 25 1026.2 1026.2 0.0
20/08:00pm 15.6 8.9 9.7 68 3.1 E 35 44 19 24 1026.0 1026.0 0.0
20/07:30pm 15.4 9.4 10.2 71 2.7 E 32 37 17 20 1025.7 1025.7 0.0
20/07:00pm 14.9 10.4 10.1 73 2.5 E 24 28 13 15 1025.3 1025.3 0.0
20/06:30pm 14.7 10.2 10.1 74 2.4 E 24 28 13 15 1025.1 1025.1 0.0
20/06:00pm 14.9 10.8 10.1 73 2.5 ESE 22 28 12 15 1024.7 1024.7 0.0
20/05:30pm 15.7 11.8 10.9 73 2.5 ESE 22 26 12 14 1024.6 1024.6 0.0
20/05:00pm 16.1 12.3 11.1 72 2.7 ESE 22 28 12 15 1024.2 1024.2 0.0
20/04:30pm 16.4 11.8 11.1 71 2.8 E 26 30 14 16 1023.9 1023.9 0.0
20/04:00pm 17.1 12.6 11.4 69 3.1 E 26 30 14 16 1023.6 1023.6 0.0
20/03:30pm 17.4 13.4 9.1 58 4.3 E 20 26 11 14 1023.5 1023.5 0.0
20/03:00pm 17.3 14.5 10.0 62 3.8 ENE 15 19 8 10 1023.8 1023.8 0.0
20/02:30pm 16.9 13.6 9.6 62 3.8 ENE 17 19 9 10 1023.7 1023.7 0.0
20/02:00pm 18.1 15.2 9.5 57 4.5 NE 15 20 8 11 1023.7 1023.7 0.0
20/01:30pm 18.0 15.0 9.4 57 4.5 NE 15 20 8 11 1023.9 1023.9 0.0
20/01:00pm 17.3 13.7 8.2 55 4.6 NE 17 24 9 13 1024.0 1024.0 0.0
20/12:30pm 16.8 11.6 9.0 60 4.0 NE 26 33 14 18 1023.9 1023.9 0.0
20/12:00pm 16.2 10.6 8.7 61 3.8 NE 28 33 15 18 1024.3 1024.3 0.0
20/11:30am 15.8 9.3 8.1 60 3.9 ENE 32 35 17 19 1024.4 1024.4 0.0
20/11:00am 15.8 9.7 8.1 60 3.9 ENE 30 35 16 19 1024.8 1024.8 0.0
20/10:30am 15.5 8.9 7.8 60 3.8 ENE 32 37 17 20 1024.6 1024.6 0.0
20/10:00am 15.8 9.3 8.1 60 3.9 ENE 32 35 17 19 1024.9 1024.9 0.0
20/09:30am 15.6 10.0 8.8 64 3.5 ENE 28 35 15 19 1025.0 1025.0 0.0
20/09:00am 15.3 9.3 8.8 65 3.3 ENE 30 35 16 19 1024.9 1024.9 0.0
20/08:30am 14.9 8.6 8.8 67 3.1 ENE 32 35 17 19 1024.5 1024.5 0.0
20/08:00am 14.5 8.2 8.9 69 2.8 ENE 32 37 17 20 1024.2 1024.2 0.0
20/07:30am 14.0 8.0 8.6 70 2.7 ENE 30 33 16 18 1023.9 1023.9 0.0
20/07:00am 13.6 7.9 8.4 71 2.6 ENE 28 32 15 17 1023.7 1023.7 0.0
20/06:30am 13.3 7.6 8.2 71 2.5 ENE 28 33 15 18 1023.4 1023.4 0.0
20/06:00am 13.3 6.8 8.2 71 2.5 ENE 32 35 17 19 1023.1 1023.1 0.0
20/05:30am 13.3 6.8 8.2 71 2.5 ENE 32 35 17 19 1022.8 1022.8 0.0
20/05:00am 13.5 7.1 8.4 71 2.5 ENE 32 35 17 19 1022.5 1022.5 0.0
20/04:30am 13.7 6.8 8.7 72 2.5 ENE 35 41 19 22 1022.1 1022.1 0.0
20/04:00am 13.6 6.7 8.7 72 2.5 ENE 35 41 19 22 1021.7 1021.7 0.0
20/03:30am 13.6 6.8 9.1 74 2.3 ENE 35 41 19 22 1021.5 1021.5 0.0
20/03:00am 13.7 7.0 9.7 77 2.0 ENE 35 41 19 22 1021.5 1021.5 0.0
20/02:30am 13.7 7.1 10.1 79 1.9 ENE 35 41 19 22 1021.6 1021.6 0.0
20/02:00am 13.7 6.7 10.1 79 1.9 ENE 37 43 20 23 1021.6 1021.6 0.0
20/01:30am 13.7 7.1 9.9 78 2.0 ENE 35 41 19 22 1021.9 1021.9 0.0
20/01:00am 13.7 7.1 9.9 78 2.0 ENE 35 43 19 23 1021.9 1021.9 0.0
20/12:30am 13.6 7.5 9.8 78 1.9 ENE 32 39 17 21 1022.3 1022.3 0.0
20/12:00am 13.7 7.1 9.9 78 2.0 ENE 35 39 19 21 1022.4 1022.4 0.0
 
Date/Time
CST
Temp
°C
App
Temp
°C
Dew
Point
Rel
Hum
%
Delta-T
°C
Wind Press
QNH
hPa
Press
MSL
hPa
Rain
since 9 am
mm
Dir
 
Spd
km/h
Gust
km/h
Spd
kts
Gust
kts
19/11:30pm 13.7 7.4 9.7 77 2.0 ENE 33 37 18 20 1022.6 1022.6 0.0
19/11:00pm 13.7 7.6 9.6 76 2.1 ENE 32 37 17 20 1022.6 1022.6 0.0
19/10:30pm 13.8 7.6 9.5 75 2.2 E 32 39 17 21 1022.7 1022.7 0.0
19/10:00pm 13.9 7.6 9.1 73 2.4 E 32 39 17 21 1022.6 1022.6 0.0
19/09:30pm 14.1 7.7 8.5 69 2.8 ENE 32 35 17 19 1022.8 1022.8 0.0
19/09:00pm 13.9 8.4 7.7 66 3.0 E 26 32 14 17 1022.9 1022.9 0.0
19/08:30pm 13.7 7.7 7.2 65 3.2 E 28 33 15 18 1022.9 1022.9 0.0
19/08:00pm 13.4 8.2 7.4 67 2.9 E 24 32 13 17 1022.9 1022.9 0.0
19/07:30pm 13.4 8.1 7.0 65 3.1 E 24 30 13 16 1022.7 1022.7 0.0
19/07:00pm 13.3 8.0 6.6 64 3.2 ESE 24 30 13 16 1022.7 1022.7 0.0
19/06:30pm 13.3 8.1 7.1 66 3.0 ESE 24 28 13 15 1022.6 1022.6 0.0
19/06:00pm 13.3 8.8 7.1 66 3.0 ESE 20 24 11 13 1022.6 1022.6 0.0
19/05:30pm 13.7 9.4 7.9 68 2.9 ESE 20 24 11 13 1022.4 1022.4 0.0
19/05:00pm 14.1 9.9 8.3 68 2.9 ESE 20 24 11 13 1022.2 1022.2 0.0
19/04:30pm 14.5 10.4 8.5 67 3.0 E 20 24 11 13 1022.1 1022.1 0.0
19/04:00pm 15.2 11.4 8.9 66 3.2 E 19 24 10 13 1022.2 1022.2 0.0
19/03:30pm 15.2 11.6 8.2 63 3.5 E 17 20 9 11 1022.5 1022.5 0.0
19/03:00pm 15.1 11.8 7.9 62 3.6 ENE 15 19 8 10 1022.7 1022.7 0.0
19/02:30pm 15.7 12.0 8.0 60 3.9 NE 17 24 9 13 1022.8 1022.8 0.0
19/02:00pm 15.7 12.3 7.5 58 4.1 NNE 15 22 8 12 1023.2 1023.2 0.0
19/01:30pm 15.8 12.4 9.0 64 3.5 ENE 17 20 9 11 1023.4 1023.4 0.0
19/01:00pm 15.3 11.6 8.1 62 3.6 NE 17 22 9 12 1023.7 1023.7 0.0
19/12:30pm 14.7 9.5 7.3 61 3.6 ENE 24 30 13 16 1023.9 1023.9 0.0
19/12:00pm 15.1 9.8 8.3 64 3.4 NE 26 33 14 18 1024.2 1024.2 0.0
19/11:30am 14.1 8.1 7.2 63 3.4 ENE 28 33 15 18 1024.4 1024.4 0.0
19/11:00am 14.2 8.6 8.6 69 2.8 ENE 28 35 15 19 1024.6 1024.6 0.0
19/10:30am 14.0 8.1 7.5 65 3.2 ENE 28 32 15 17 1025.0 1025.0 0.0
19/10:00am 14.3 9.0 8.5 68 2.9 ENE 26 32 14 17 1025.2 1025.2 0.0
19/09:30am 13.8 8.0 7.8 67 2.9 ENE 28 33 15 18 1025.5 1025.5 0.0
19/09:00am 13.5 7.2 7.5 67 2.9 ENE 30 35 16 19 1025.4 1025.4 3.2
19/08:30am 13.3 7.4 7.3 67 2.9 ENE 28 33 15 18 1025.3 1025.3 3.2
19/08:00am 12.9 6.6 7.4 69 2.7 NE 30 35 16 19 1025.1 1025.1 3.2
19/07:30am 12.2 6.6 7.3 72 2.4 ENE 26 30 14 16 1025.1 1025.1 3.2
19/07:00am 11.7 6.5 7.2 74 2.2 E 24 30 13 16 1024.9 1024.9 3.2
19/06:30am 11.7 4.9 7.0 73 2.2 ENE 32 37 17 20 1024.6 1024.6 3.2
19/06:00am 12.1 6.1 7.2 72 2.4 E 28 33 15 18 1024.2 1024.2 3.2
19/05:30am 11.9 6.2 6.6 70 2.5 E 26 30 14 16 1024.1 1024.1 3.2
19/05:00am 11.4 5.9 6.1 70 2.5 E 24 32 13 17 1024.1 1024.1 3.2
19/04:30am 11.6 5.5 6.5 71 2.4 E 28 33 15 18 1024.0 1024.0 3.2
19/04:00am 11.6 5.9 6.9 73 2.2 E 26 32 14 17 1024.0 1024.0 3.2
19/03:30am 11.4 5.7 6.7 73 2.2 E 26 32 14 17 1024.0 1024.0 3.2
19/03:00am 11.3 6.0 6.8 74 2.1 E 24 30 13 16 1024.1 1024.1 3.2
19/02:30am 11.3 6.3 6.6 73 2.2 E 22 28 12 15 1024.4 1024.4 3.2
19/02:00am 11.2 5.8 6.3 72 2.3 E 24 30 13 16 1024.5 1024.5 3.2
19/01:30am 11.2 5.8 6.5 73 2.2 E 24 30 13 16 1024.6 1024.6 3.2
19/01:00am 11.1 5.7 6.5 73 2.2 E 24 32 13 17 1024.6 1024.6 3.2
19/12:30am 11.3 5.6 6.8 74 2.1 E 26 32 14 17 1024.9 1024.9 3.2
19/12:00am 11.4 5.7 6.7 73 2.2 E 26 32 14 17 1025.1 1025.1 3.2
 
Date/Time
CST
Temp
°C
App
Temp
°C
Dew
Point
Rel
Hum
%
Delta-T
°C
Wind Press
QNH
hPa
Press
MSL
hPa
Rain
since 9 am
mm
Dir
 
Spd
km/h
Gust
km/h
Spd
kts
Gust
kts
18/11:30pm 11.9 6.8 7.6 75 2.1 E 24 30 13 16 1025.5 1025.5 3.2
18/11:00pm 11.7 6.6 7.6 76 2.0 E 24 30 13 16 1025.7 1025.7 3.2
18/10:30pm 11.9 6.1 7.8 76 2.0 E 28 35 15 19 1025.9 1025.9 3.2
18/10:00pm 11.6 6.4 7.1 74 2.2 E 24 30 13 16 1026.2 1026.2 3.2
18/09:30pm 11.8 6.2 7.3 74 2.2 ESE 26 35 14 19 1026.1 1026.1 3.2
18/09:00pm 11.6 7.1 6.9 73 2.2 ESE 20 26 11 14 1026.1 1026.1 3.2
18/08:30pm 11.7 7.2 7.0 73 2.2 ESE 20 24 11 13 1026.1 1026.1 3.2
18/08:00pm 11.6 7.0 6.7 72 2.3 ESE 20 24 11 13 1025.9 1025.9 3.2
18/07:30pm 11.9 6.7 7.2 73 2.2 ESE 24 28 13 15 1025.6 1025.6 3.2
18/07:00pm 12.0 6.8 7.1 72 2.4 SE 24 32 13 17 1025.7 1025.7 3.2
18/06:30pm 12.1 7.8 7.2 72 2.3 SSE 19 24 10 13 1025.7 1025.7 3.2
18/06:00pm 12.3 8.2 7.8 74 2.2 S 19 24 10 13 1025.5 1025.5 3.2
18/05:30pm 12.5 9.5 7.8 73 2.3 S 13 17 7 9 1025.4 1025.4 3.2
18/05:00pm 12.1 8.3 7.4 73 2.3 SSE 17 20 9 11 1025.2 1025.2 3.2
18/04:30pm 12.5 8.2 8.0 74 2.2 SE 20 26 11 14 1025.0 1025.0 3.2
18/04:00pm 12.2 8.2 8.1 76 2.0 SSE 19 24 10 13 1025.1 1025.1 3.2
18/03:30pm 11.8 8.7 7.3 74 2.2 S 13 19 7 10 1025.2 1025.2 3.0
18/03:00pm 14.1 10.0 8.5 69 2.8 SE 20 33 11 18 1025.1 1025.1 3.0
18/02:30pm 13.9 11.3 7.9 67 3.0 SSE 11 15 6 8 1025.3 1025.3 3.0
18/02:00pm 13.6 10.2 7.8 68 2.9 SE 15 19 8 10 1025.4 1025.4 3.0
18/01:30pm 13.5 12.0 8.6 72 2.4 SSE 6 11 3 6 1025.6 1025.6 3.0
18/01:00pm 13.6 11.8 9.3 75 2.2 NNW 9 13 5 7 1025.9 1025.9 3.0
18/12:30pm 12.7 9.9 8.6 76 2.0 N 13 15 7 8 1025.9 1025.9 3.0
18/12:00pm 13.1 11.0 9.7 80 1.7 N 11 13 6 7 1026.2 1026.2 3.0
18/11:30am 12.7 10.6 9.7 82 1.5 NNE 11 17 6 9 1026.3 1026.3 3.0
18/11:00am 11.8 9.5 9.0 83 1.4 NNE 11 13 6 7 1026.2 1026.2 3.0
18/10:30am 10.6 7.6 7.7 82 1.4 NE 13 20 7 11 1026.4 1026.4 3.0
18/10:00am 10.4 7.4 7.5 82 1.4 ENE 13 17 7 9 1026.7 1026.7 2.8
18/09:30am 10.5 5.0 7.7 83 1.3 E 26 30 14 16 1026.7 1026.7 1.2
18/09:00am 11.2 7.4 7.5 78 1.8 SW 17 26 9 14 1026.7 1026.7 5.8
18/08:30am 10.4 5.5 6.9 79 1.6 S 22 39 12 21 1026.7 1026.7 4.6
18/08:00am 11.1 10.3 6.6 74 2.1 CALM 0 0 0 0 1026.6 1026.6 1.4

Other Formats:

Comma delimited format used in spreadsheet applications
http://www.bom.gov.au/fwo/IDS60801/IDS60801.94804.axf

JavaScript Object Notation format (JSON) in row-major order
http://www.bom.gov.au/fwo/IDS60801/IDS60801.94804.json